Aérodrome :
LOGIN :

S'inscrire | Disclaimer

   EN    FR    IT 

 










Légende :    VFR   VFR Marginal   IFR   IFR Intensif   IFR Très Intensif
Visi : 
Plafond : 
>= 8 km
>= 3000ft
5 à 8 km
1000 à 3000 ft
1500m à 5 km
500 à 1000 ft
800 à 1500m
200 à 500 ft
< 800m
< 200 ft
Symboles :   Orages  Brouillard  Fortes neiges  Fortes précipitations  Vent > 20 kt
SIGMETs :   Divers  Orages  Givrage  Turbulence  Onde Orograph.  Cendres Volcan.







- Altitude de l'aérodrome : 194 ft
- Code IATA : ANE
- Voir les cartes d'approche


LFJR - Angers Marcé

DERNIER METAR :
  • 131830Z AUTO 29013G25KT 250V330 9999 -RADZ BKN015 BKN020 BKN033 12/10 Q1002 TEMPO 3000 RA OVC005

METARs EXPIRÉS :
  • 131800Z AUTO 26016KT 230V290 9999 BKN007 OVC011 13/12 Q1001 TEMPO 26020G33KT 3000 RA
  • 131730Z AUTO 23015KT 9000 -DZ OVC005 12/11 Q1000 TEMPO 26020G33KT 3000 RA
  • 131700Z AUTO 22013KT 9999 -DZ OVC005 11/11 Q1000 TEMPO 26020G33KT 3000 RA
  • 131630Z AUTO 20013KT 9999 -DZ BKN005 OVC012 11/10 Q1001 TEMPO 26020G33KT 3000 RA
  • 131600Z AUTO 20012KT 130V230 5000 -RADZ BR BKN005 OVC015 10/09 Q1001 TEMPO 26020G33KT RA
  • 131530Z AUTO 20010KT 6000 -DZ OVC006 10/09 Q1002 TEMPO 26020G33KT 3000 RA

TAF TAF LFJR
Valide du 13 à 15h jusqu'au 14 à 00h UTC


131400Z 1315/1324 24015G25KT 9999 -RA BKN014 OVC040
TEMPO 1315/1320 26020G33KT 3000 RA OVC005
BECMG 1320/1322 NSW BKN015 BKN040
Pas de NOTAMs connus pour ce terrain.
3 SIGMETs publiés pour la FIR Brest (LFRR) :
 
Turbulence forte
LFRR SIGMET 3 VALID 131800/132200 LFPW
LFRR BREST FIR/UIR SEV TURB OBS WI N4930 W00430 - N5000 W00200 - N5000 W00015 - N4915 W00015 - N4915 W00345 - N4930 W00430 FL140/240 MOV S 10KT NC=
Turbulence forte
LFRR SIGMET 2 VALID 131500/131900 LFPW
LFRR BREST FIR/UIR SEV TURB FCST WI N4800 W00800 - N4900 W00800 - N4930 W00530 - N4830 W00530 - N4800 W00800 SFC/FL060 MOV E 50KT NC=
Turbulence forte
LFRR SIGMET 1 VALID 131500/131900 LFPW
LFRR BREST FIR/UIR SEV TURB FCST WI N4400 W00400 - N4445 W00700 - N4815 W00430 - N4745 W00015 - N4630 W00015 - N4630 W00130 - N4445 W00145 - N4400 W00400 SFC/FL050 MOV E 40KT NC=



MET'MAP, la Météo Aéronautique d'un coup d'oeil ! - Copyright ORBIFLY Décembre 2007 - Disclaimer

ORBIFLY MET'MAP TEAM :

Programmation & Développement : Alexandra Zaïnal
Conception & Développement : Baudouin d'Aumeries
Co-Programmation & Développement : Marc-Olivier Méhu
Soutien technique & logistique : Manuel Goepfert

Contact : metmap@orbifly.com




SOURCES & CREDITS :

   NOAA